Time;durP1;ratioP1;P1;durP2;ratioP2;P2;SDS_P1;SDS_P2;PMS_P1;PMS_P2;Temp;Humidity;BMP_temperature;BMP_pressure;BME280_temperature;BME280_humidity;BME280_pressure;Samples;Min_cycle;Max_cycle;Signal;HPM_P1;HPM_P2
2020/12/18 00:02:05;;;;;;;15.20;13.03;;;;;;;8.84;73.47;101764.41;5035055;28;20558;-73
2020/12/18 00:04:31;;;;;;;19.43;14.87;;;;;;;8.77;73.79;101765.91;5035813;28;20194;-74
2020/12/18 00:06:56;;;;;;;17.17;12.93;;;;;;;8.65;73.64;101761.16;5035779;28;20170;-74
2020/12/18 00:09:21;;;;;;;16.13;13.30;;;;;;;8.90;73.47;101764.56;5035824;28;20206;-76
2020/12/18 00:11:47;;;;;;;21.33;13.70;;;;;;;8.85;73.27;101763.53;5036308;28;20166;-77
2020/12/18 00:14:12;;;;;;;16.50;13.23;;;;;;;8.85;73.29;101772.25;5035702;28;20170;-75
2020/12/18 00:16:38;;;;;;;16.57;12.53;;;;;;;8.87;73.34;101760.16;5035396;28;20255;-72
2020/12/18 00:19:04;;;;;;;19.53;14.27;;;;;;;8.52;73.61;101767.66;5035919;28;20174;-71
2020/12/18 00:21:29;;;;;;;18.43;13.60;;;;;;;8.87;72.95;101767.09;5035490;28;20169;-72
2020/12/18 00:23:54;;;;;;;20.90;14.53;;;;;;;8.71;72.91;101769.19;5035321;28;20921;-72
2020/12/18 00:26:20;;;;;;;20.13;13.93;;;;;;;8.58;73.45;101769.59;5035810;28;20166;-74
2020/12/18 00:28:46;;;;;;;17.20;13.40;;;;;;;8.78;73.16;101767.66;5035643;28;20170;-71
2020/12/18 00:31:12;;;;;;;17.70;15.23;;;;;;;8.51;73.69;101762.41;5035263;28;20198;-73
2020/12/18 00:33:38;;;;;;;17.17;13.93;;;;;;;8.26;74.48;101771.91;5035961;28;20419;-74
2020/12/18 00:36:04;;;;;;;16.60;12.90;;;;;;;8.07;75.15;101773.81;5035500;28;20544;-73
2020/12/18 00:38:29;;;;;;;18.37;13.50;;;;;;;8.01;75.48;101773.63;5036322;28;20190;-78
2020/12/18 00:40:54;;;;;;;15.60;13.00;;;;;;;7.96;75.42;101774.28;5036350;28;20477;-76
2020/12/18 00:43:20;;;;;;;21.03;13.70;;;;;;;8.06;75.35;101777.28;5036002;28;20205;-76
2020/12/18 00:45:45;;;;;;;20.70;13.17;;;;;;;7.94;75.55;101771.59;5035170;28;20210;-81
2020/12/18 00:48:12;;;;;;;21.83;13.80;;;;;;;7.70;76.43;101777.66;5036405;28;20191;-78
2020/12/18 00:50:37;;;;;;;16.43;13.37;;;;;;;7.97;75.09;101774.34;5035697;28;20204;-72
2020/12/18 00:53:04;;;;;;;18.37;13.40;;;;;;;8.03;74.91;101771.94;5036422;28;20456;-70
2020/12/18 00:55:30;;;;;;;14.83;13.23;;;;;;;8.12;74.63;101779.22;5036859;28;20245;-72
2020/12/18 00:57:55;;;;;;;15.53;13.90;;;;;;;7.96;75.39;101774.28;5036196;28;20413;-73
2020/12/18 01:00:20;;;;;;;16.83;13.90;;;;;;;8.15;74.47;101775.84;5036278;28;20609;-72
2020/12/18 01:02:46;;;;;;;19.40;13.07;;;;;;;8.01;75.55;101770.13;5036699;28;20174;-72
2020/12/18 01:05:11;;;;;;;18.97;14.63;;;;;;;8.17;74.61;101780.28;5036323;28;20198;-74
2020/12/18 01:07:36;;;;;;;16.80;13.20;;;;;;;8.09;74.87;101781.66;5036482;28;20441;-73
2020/12/18 01:10:02;;;;;;;18.47;14.73;;;;;;;8.09;74.97;101774.78;5039724;28;20216;-75
2020/12/18 01:12:27;;;;;;;17.20;13.07;;;;;;;8.38;73.80;101780.13;5040187;28;20512;-77
2020/12/18 01:14:53;;;;;;;17.67;13.60;;;;;;;8.37;73.55;101783.56;5039816;28;20566;-80
2020/12/18 01:17:18;;;;;;;16.20;14.57;;;;;;;8.35;73.79;101789.53;5040495;28;20166;-79
2020/12/18 01:19:44;;;;;;;17.43;13.40;;;;;;;8.17;74.46;101785.47;5039848;28;20219;-78
2020/12/18 01:22:09;;;;;;;22.20;14.87;;;;;;;8.40;74.00;101788.88;5033536;28;20189;-74
2020/12/18 01:24:34;;;;;;;15.10;13.03;;;;;;;8.62;72.63;101792.25;5029898;28;20222;-76
2020/12/18 01:27:00;;;;;;;15.47;12.63;;;;;;;8.56;73.23;101787.72;5027721;28;20202;-75
2020/12/18 01:29:25;;;;;;;18.03;13.97;;;;;;;8.67;72.93;101790.69;5030159;28;20186;-74
2020/12/18 01:31:51;;;;;;;16.60;13.30;;;;;;;8.52;73.26;101788.44;5028481;28;20233;-74
2020/12/18 01:34:16;;;;;;;18.83;13.90;;;;;;;8.64;72.67;101790.59;5033859;28;20490;-74
2020/12/18 01:36:41;;;;;;;14.43;13.00;;;;;;;8.51;73.42;101806.56;5038645;28;20613;-73
2020/12/18 01:39:07;;;;;;;17.00;13.70;;;;;;;8.47;73.44;101808.22;5038831;28;20167;-73
2020/12/18 01:41:32;;;;;;;14.33;12.87;;;;;;;8.62;73.13;101809.56;5039569;28;20196;-75
2020/12/18 01:43:58;;;;;;;16.23;13.23;;;;;;;8.84;72.43;101804.28;5039609;28;20264;-74
2020/12/18 01:46:27;;;;;;;19.43;13.37;;;;;;;8.57;73.32;101810.28;5039464;28;20538;-74
2020/12/18 01:48:52;;;;;;;18.17;13.30;;;;;;;8.63;73.18;101801.81;5039371;28;20451;-74
2020/12/18 01:51:18;;;;;;;16.47;13.27;;;;;;;8.96;71.62;101809.00;5039703;28;20408;-75
2020/12/18 01:53:43;;;;;;;15.87;11.70;;;;;;;8.88;71.96;101813.06;5038636;28;20253;-75
2020/12/18 01:56:09;;;;;;;17.57;13.37;;;;;;;9.02;71.44;101800.53;5038423;28;20186;-74
2020/12/18 01:58:39;;;;;;;15.90;13.43;;;;;;;8.90;71.64;101807.09;5038769;28;20178;-74
2020/12/18 02:01:06;;;;;;;16.13;12.67;;;;;;;8.89;71.72;101804.41;5039136;28;20431;-74
2020/12/18 02:03:32;;;;;;;15.63;12.20;;;;;;;8.98;71.01;101812.53;5039117;28;20695;-72
2020/12/18 02:06:02;;;;;;;16.47;12.50;;;;;;;8.96;71.46;101813.31;5039187;28;20482;-72
2020/12/18 02:08:32;;;;;;;16.00;13.17;;;;;;;8.93;71.22;101811.50;5039136;28;20185;-73
2020/12/18 02:10:57;;;;;;;18.20;13.00;;;;;;;9.09;70.71;101808.59;5039181;28;20405;-73
2020/12/18 02:13:24;;;;;;;16.30;13.40;;;;;;;8.85;71.19;101812.94;5039412;28;20423;-71
2020/12/18 02:15:52;;;;;;;15.37;12.63;;;;;;;8.97;70.52;101808.19;5038797;28;20209;-71
2020/12/18 02:18:22;;;;;;;16.37;13.97;;;;;;;8.89;70.90;101801.81;5037958;28;20814;-73
2020/12/18 02:20:49;;;;;;;27.90;24.98;;;;;;;11.10;81.10;101805.66;5038213;28;20660;-61
2020/12/18 02:23:14;;;;;;;18.23;15.83;;;;;;;11.66;63.32;101805.19;5038833;28;20197;-71
2020/12/18 02:25:41;;;;;;;15.47;13.87;;;;;;;9.94;66.67;101812.91;5038733;28;20469;-75
2020/12/18 02:28:07;;;;;;;14.07;12.67;;;;;;;9.33;69.06;101815.41;5038909;28;20170;-74
2020/12/18 02:30:32;;;;;;;14.07;12.43;;;;;;;9.27;69.81;101810.03;5038578;28;20417;-74
2020/12/18 02:32:58;;;;;;;15.70;14.07;;;;;;;9.16;69.31;101809.66;5038627;28;20437;-75
2020/12/18 02:35:23;;;;;;;16.10;13.30;;;;;;;9.23;69.36;101821.16;5038897;28;20186;-75
2020/12/18 02:37:52;;;;;;;17.20;13.80;;;;;;;9.10;70.24;101825.06;5038655;28;20213;-73
2020/12/18 02:40:18;;;;;;;16.60;14.20;;;;;;;8.87;70.41;101814.75;5038410;28;20253;-74
2020/12/18 02:42:43;;;;;;;18.47;14.50;;;;;;;9.20;70.50;101810.63;5038888;28;20832;-73
2020/12/18 02:45:08;;;;;;;19.27;15.20;;;;;;;8.81;70.65;101811.06;5038278;28;20213;-73
2020/12/18 02:47:33;;;;;;;17.00;15.07;;;;;;;8.79;71.20;101813.63;5038442;28;20249;-73
2020/12/18 02:49:59;;;;;;;16.70;14.77;;;;;;;8.77;71.10;101818.78;5038415;28;20167;-73
2020/12/18 02:52:24;;;;;;;19.83;15.60;;;;;;;8.92;70.30;101815.81;5038196;28;20438;-72
2020/12/18 02:54:49;;;;;;;20.00;16.30;;;;;;;8.72;71.03;101816.84;5038231;28;20170;-74
2020/12/18 02:57:15;;;;;;;20.10;16.63;;;;;;;9.09;70.36;101816.38;5038415;28;20177;-74
2020/12/18 02:59:40;;;;;;;17.33;15.00;;;;;;;9.02;70.27;101817.00;5038000;28;20216;-74
2020/12/18 03:02:05;;;;;;;18.03;15.30;;;;;;;8.64;71.51;101810.50;5037935;28;20182;-74
2020/12/18 03:04:31;;;;;;;17.67;16.07;;;;;;;8.63;72.04;101822.59;5038295;28;20297;-74
2020/12/18 03:06:56;;;;;;;17.23;15.43;;;;;;;8.83;70.96;101819.81;5038071;28;20178;-74
2020/12/18 03:09:22;;;;;;;17.20;15.50;;;;;;;9.00;70.52;101813.47;5037616;28;20181;-75
2020/12/18 03:11:48;;;;;;;18.53;15.20;;;;;;;8.70;71.63;101816.81;5038308;28;20249;-75
2020/12/18 03:14:13;;;;;;;19.43;15.77;;;;;;;9.02;69.77;101811.78;5037528;28;20678;-73
2020/12/18 03:16:39;;;;;;;20.43;15.73;;;;;;;8.82;70.68;101811.16;5037737;28;20163;-73
2020/12/18 03:19:05;;;;;;;17.67;15.40;;;;;;;8.86;70.63;101805.22;5037901;28;20174;-73
2020/12/18 03:21:30;;;;;;;20.97;16.40;;;;;;;9.12;69.91;101812.09;5037607;28;20220;-74
2020/12/18 03:23:55;;;;;;;17.10;14.70;;;;;;;8.76;70.92;101804.00;5037269;28;20447;-73
2020/12/18 03:26:21;;;;;;;17.67;15.83;;;;;;;8.71;70.80;101805.59;5038007;28;20182;-73
2020/12/18 03:28:46;;;;;;;17.17;15.40;;;;;;;8.86;71.40;101804.31;5037501;28;20421;-73
2020/12/18 03:31:12;;;;;;;18.57;16.53;;;;;;;9.25;69.00;101798.66;5036761;28;20257;-73
2020/12/18 03:33:37;;;;;;;16.60;14.23;;;;;;;9.35;69.03;101803.34;5037932;28;20224;-74
2020/12/18 03:36:02;;;;;;;18.70;15.93;;;;;;;9.06;69.32;101807.59;5037266;28;20177;-73
2020/12/18 03:38:27;;;;;;;17.83;15.30;;;;;;;9.18;69.76;101799.31;5037324;28;20216;-73
2020/12/18 03:40:53;;;;;;;20.10;15.93;;;;;;;9.15;69.36;101812.22;5037692;28;20476;-74
2020/12/18 03:43:18;;;;;;;20.87;14.43;;;;;;;9.04;69.91;101798.88;5037270;28;20448;-74
2020/12/18 03:45:43;;;;;;;17.83;15.93;;;;;;;8.83;70.17;101810.28;5037188;28;20198;-73
2020/12/18 03:48:09;;;;;;;21.47;17.40;;;;;;;8.88;70.85;101808.75;5037529;28;20547;-73
2020/12/18 03:50:34;;;;;;;18.53;16.73;;;;;;;9.01;69.79;101815.25;5037076;28;20166;-73
2020/12/18 03:52:59;;;;;;;17.53;15.70;;;;;;;9.09;69.70;101813.78;5037197;28;20224;-73
2020/12/18 03:55:24;;;;;;;22.60;16.07;;;;;;;9.07;70.05;101809.38;5037485;28;20536;-73
2020/12/18 03:57:50;;;;;;;18.07;16.37;;;;;;;9.04;69.57;101807.53;5037052;28;20177;-73
2020/12/18 04:00:15;;;;;;;19.07;15.87;;;;;;;9.16;69.42;101814.88;5036834;28;20174;-73
2020/12/18 04:02:40;;;;;;;17.80;15.20;;;;;;;8.93;69.91;101814.13;5037350;28;20167;-73
2020/12/18 04:05:06;;;;;;;18.40;16.50;;;;;;;8.67;70.39;101818.41;5036966;28;20591;-73
2020/12/18 04:07:31;;;;;;;18.47;15.43;;;;;;;8.86;70.62;101819.91;5037057;28;20190;-73
2020/12/18 04:09:56;;;;;;;23.10;16.67;;;;;;;8.93;70.07;101819.31;5037009;28;20162;-73
2020/12/18 04:12:21;;;;;;;19.60;16.80;;;;;;;8.73;70.34;101818.63;5036840;28;20264;-73
2020/12/18 04:14:47;;;;;;;18.30;16.33;;;;;;;8.99;69.54;101816.91;5036714;28;20174;-73
2020/12/18 04:17:12;;;;;;;19.60;17.27;;;;;;;8.86;69.95;101818.22;5037240;28;20173;-73
2020/12/18 04:19:37;;;;;;;17.57;15.87;;;;;;;9.04;69.25;101819.69;5036694;28;20178;-73
2020/12/18 04:22:03;;;;;;;18.27;16.40;;;;;;;9.04;69.43;101819.69;5036625;28;20174;-74
2020/12/18 04:24:28;;;;;;;20.27;16.33;;;;;;;8.95;69.97;101819.38;5036639;28;20225;-74
2020/12/18 04:26:53;;;;;;;19.73;17.40;;;;;;;9.18;68.70;101817.53;5036119;28;20563;-73
2020/12/18 04:29:19;;;;;;;18.43;16.13;;;;;;;9.20;68.78;101808.03;5036421;28;20228;-72
2020/12/18 04:31:44;;;;;;;22.20;16.30;;;;;;;9.03;68.94;101810.97;5036580;28;20450;-73
2020/12/18 04:34:10;;;;;;;17.13;15.47;;;;;;;8.84;69.96;101817.28;5036440;28;20158;-73
2020/12/18 04:36:35;;;;;;;18.50;16.33;;;;;;;8.92;69.90;101818.41;5036919;28;20174;-73
2020/12/18 04:39:01;;;;;;;18.07;15.53;;;;;;;9.02;69.59;101819.59;5036325;28;20185;-73
2020/12/18 04:41:27;;;;;;;20.80;16.67;;;;;;;8.84;69.84;101817.28;5036584;28;20170;-74
2020/12/18 04:43:53;;;;;;;23.30;17.03;;;;;;;9.02;69.53;101821.31;5040056;28;20532;-74
2020/12/18 04:46:20;;;;;;;18.50;15.57;;;;;;;8.81;69.86;101819.78;5040511;28;20186;-74
2020/12/18 04:48:46;;;;;;;17.67;15.63;;;;;;;8.72;70.21;101814.25;5040429;28;20528;-74
2020/12/18 04:51:18;;;;;;;21.57;16.00;;;;;;;8.90;70.11;101821.78;5040877;28;20850;-74
2020/12/18 04:53:47;;;;;;;23.20;17.30;;;;;;;8.82;70.53;101823.25;5040532;28;20399;-74
2020/12/18 04:56:12;;;;;;;18.93;16.63;;;;;;;9.02;68.98;101818.72;5040157;28;20416;-73
2020/12/18 04:58:38;;;;;;;18.73;16.43;;;;;;;8.87;69.62;101816.50;5040272;28;20423;-73
2020/12/18 05:01:04;;;;;;;17.70;15.90;;;;;;;8.91;69.41;101818.38;5040477;28;20193;-73
2020/12/18 05:03:33;;;;;;;17.90;15.97;;;;;;;8.92;69.30;101815.81;5040748;28;20189;-74
2020/12/18 05:05:59;;;;;;;20.00;16.60;;;;;;;9.00;69.19;101825.56;5039914;28;20462;-74
2020/12/18 05:08:26;;;;;;;21.97;15.90;;;;;;;8.96;69.54;101824.63;5040217;28;20805;-75
2020/12/18 05:10:51;;;;;;;18.03;16.13;;;;;;;9.05;68.93;101822.31;5040431;28;20395;-74
2020/12/18 05:13:16;;;;;;;20.20;16.63;;;;;;;9.19;68.28;101822.78;5040191;28;20480;-74
2020/12/18 05:15:42;;;;;;;18.67;15.93;;;;;;;9.08;69.23;101821.53;5040122;28;20189;-74
2020/12/18 05:18:07;;;;;;;19.63;15.70;;;;;;;9.00;69.53;101825.56;5040290;28;20181;-73
2020/12/18 05:20:32;;;;;;;19.67;14.87;;;;;;;8.86;69.48;101826.03;5039903;28;20177;-75
2020/12/18 05:22:57;;;;;;;20.87;15.87;;;;;;;8.92;69.38;101823.63;5040075;28;20189;-74
2020/12/18 05:25:23;;;;;;;17.53;13.87;;;;;;;9.06;69.21;101821.47;5039613;28;20230;-74
2020/12/18 05:27:51;;;;;;;16.23;14.20;;;;;;;9.24;68.17;101823.81;5039911;28;20199;-74
2020/12/18 05:30:20;;;;;;;17.27;14.07;;;;;;;9.15;68.57;101823.50;5039947;28;20632;-74
2020/12/18 05:32:53;;;;;;;17.10;14.67;;;;;;;9.07;68.86;101820.63;5039879;28;20511;-74
2020/12/18 05:35:19;;;;;;;15.47;13.87;;;;;;;9.28;69.22;101809.16;5039949;28;20721;-74
2020/12/18 05:37:45;;;;;;;16.50;14.27;;;;;;;9.06;69.12;101818.88;5039735;28;20395;-73
2020/12/18 05:40:10;;;;;;;17.80;14.47;;;;;;;9.06;69.70;101813.66;5039380;28;20536;-74
2020/12/18 05:42:42;;;;;;;19.20;16.50;;;;;;;8.97;69.28;101815.09;5040053;28;20232;-74
2020/12/18 05:45:26;;;;;;;17.07;14.80;;;;;;;8.78;70.09;101817.03;5039570;28;20267;-74
2020/12/18 05:47:56;;;;;;;19.20;15.50;;;;;;;8.86;69.65;101819.91;5039689;28;20407;-74
2020/12/18 05:50:32;;;;;;;20.30;15.30;;;;;;;8.55;70.95;101824.94;5039278;28;20520;-74
2020/12/18 05:53:04;;;;;;;18.47;15.10;;;;;;;8.33;72.30;101820.66;5039493;28;20470;-73
2020/12/18 05:55:36;;;;;;;17.90;16.00;;;;;;;8.25;72.75;101817.78;5038760;28;20388;-72
2020/12/18 05:58:02;;;;;;;21.53;15.27;;;;;;;8.36;72.08;101818.19;5039479;28;20424;-72
2020/12/18 06:00:27;;;;;;;18.57;15.10;;;;;;;8.38;72.11;101819.09;5039262;28;20409;-72
2020/12/18 06:02:57;;;;;;;17.87;15.60;;;;;;;8.28;71.86;101817.03;5039318;28;20189;-73
2020/12/18 06:05:24;;;;;;;18.83;15.70;;;;;;;8.50;72.47;101815.22;5038738;28;20560;-73
2020/12/18 06:07:51;;;;;;;21.07;16.70;;;;;;;8.13;72.46;101825.09;5039206;28;20629;-73
2020/12/18 06:10:20;;;;;;;20.90;15.90;;;;;;;8.07;72.69;101828.38;5038855;28;20391;-73
2020/12/18 06:12:47;;;;;;;20.70;17.40;;;;;;;8.12;73.23;101828.56;5039592;28;20448;-73
2020/12/18 06:15:12;;;;;;;22.77;17.87;;;;;;;8.13;72.31;101826.84;5038388;28;20425;-73
2020/12/18 06:17:38;;;;;;;20.43;16.70;;;;;;;8.31;72.58;101824.91;5039109;28;20462;-73
2020/12/18 06:20:04;;;;;;;20.70;15.40;;;;;;;8.32;72.07;101826.69;5039051;28;20170;-74
2020/12/18 06:22:29;;;;;;;19.07;17.07;;;;;;;7.89;73.53;101835.47;5039054;28;20407;-74
2020/12/18 06:24:54;;;;;;;21.27;16.80;;;;;;;8.18;72.60;101833.09;5038755;28;20229;-74
2020/12/18 06:27:20;;;;;;;18.40;16.20;;;;;;;8.31;72.18;101827.53;5039543;28;20186;-73
2020/12/18 06:29:46;;;;;;;19.30;16.20;;;;;;;8.69;71.00;101827.16;5038658;28;20170;-74
2020/12/18 06:32:22;;;;;;;25.40;17.00;;;;;;;8.20;72.51;101837.50;5038360;28;20178;-73
2020/12/18 06:34:48;;;;;;;23.03;16.90;;;;;;;8.36;72.97;101836.38;5038850;28;20415;-75
2020/12/18 06:37:30;;;;;;;21.40;16.97;;;;;;;8.27;72.44;101833.44;5038685;28;20421;-75
2020/12/18 06:39:55;;;;;;;20.93;17.67;;;;;;;8.10;73.17;101825.00;5038436;28;20162;-75
2020/12/18 06:42:22;;;;;;;22.70;18.50;;;;;;;7.91;74.21;101845.09;5038435;28;20392;-74
2020/12/18 06:44:55;;;;;;;25.13;17.33;;;;;;;8.09;73.53;101834.53;5038266;28;20283;-74
2020/12/18 06:47:30;;;;;;;23.73;18.07;;;;;;;8.23;74.02;101822.03;5038419;28;20420;-74
2020/12/18 06:49:58;;;;;;;26.77;18.67;;;;;;;7.93;73.73;101837.38;5038285;28;20383;-73
2020/12/18 06:52:46;;;;;;;26.80;17.77;;;;;;;7.45;76.11;101829.44;5038248;28;20412;-74
2020/12/18 06:55:36;;;;;;;21.87;17.30;;;;;;;7.91;74.41;101833.81;5038364;28;20462;-72
2020/12/18 06:58:17;;;;;;;20.93;17.37;;;;;;;7.87;74.91;101845.78;5037985;28;20425;-74
2020/12/18 07:00:50;;;;;;;21.50;17.20;;;;;;;7.82;74.49;101841.25;5037290;28;20848;-74
2020/12/18 07:03:43;;;;;;;24.40;17.63;;;;;;;7.90;75.03;101839.81;5038118;28;20475;-74
2020/12/18 07:06:22;;;;;;;22.47;16.00;;;;;;;7.70;75.26;101839.09;5036723;28;20465;-74
2020/12/18 07:08:47;;;;;;;22.33;16.97;;;;;;;7.75;74.94;101841.03;5037995;28;20487;-74
2020/12/18 07:11:15;;;;;;;20.83;17.10;;;;;;;7.99;74.98;101832.38;5037984;28;20498;-74
2020/12/18 07:13:47;;;;;;;24.03;17.57;;;;;;;7.99;74.46;101835.00;5037819;28;20162;-74
2020/12/18 07:16:13;;;;;;;27.67;17.40;;;;;;;8.12;73.80;101831.16;5038008;28;20409;-73
2020/12/18 07:18:41;;;;;;;20.83;15.60;;;;;;;8.13;74.29;101829.44;5037749;28;20519;-74
2020/12/18 07:21:08;;;;;;;21.37;14.57;;;;;;;7.93;74.58;101834.78;5037984;28;20431;-73
2020/12/18 07:23:39;;;;;;;18.37;13.90;;;;;;;7.86;74.91;101835.34;5037743;28;20408;-73
2020/12/18 07:26:06;;;;;;;23.23;15.10;;;;;;;8.03;74.41;101831.69;5037700;28;20464;-73
2020/12/18 07:28:36;;;;;;;22.73;15.07;;;;;;;7.96;74.25;101837.47;5037831;28;20421;-73
2020/12/18 07:31:02;;;;;;;20.67;14.57;;;;;;;8.23;75.12;101823.75;5037687;28;20413;-74
2020/12/18 07:33:27;;;;;;;22.33;15.27;;;;;;;8.07;73.98;101833.56;5037635;28;20420;-73
2020/12/18 07:35:55;;;;;;;16.40;14.60;;;;;;;8.06;73.45;101829.22;5038026;28;20175;-74
2020/12/18 07:38:28;;;;;;;17.57;15.60;;;;;;;8.01;74.79;101830.75;5038278;28;20181;-75
2020/12/18 07:40:56;;;;;;;18.70;13.90;;;;;;;7.92;74.10;101840.78;5037686;28;20431;-74
2020/12/18 07:43:25;;;;;;;15.50;13.77;;;;;;;7.82;74.09;101829.16;5036765;28;20459;-74
2020/12/18 07:45:55;;;;;;;17.43;12.83;;;;;;;8.22;74.09;101824.59;5037422;28;20503;-74
2020/12/18 07:48:32;;;;;;;17.63;13.13;;;;;;;8.25;73.35;101828.19;5036955;28;20472;-75
2020/12/18 07:51:08;;;;;;;17.27;12.40;;;;;;;8.24;72.55;101822.91;5036570;28;20451;-75
2020/12/18 07:53:35;;;;;;;15.33;13.00;;;;;;;8.29;72.83;101815.28;5037227;28;20435;-74
2020/12/18 07:56:09;;;;;;;17.63;12.90;;;;;;;8.35;72.90;101808.63;5037020;28;20424;-75
2020/12/18 07:58:45;;;;;;;12.73;10.43;;;;;;;8.03;74.17;101823.88;5037348;28;20828;-74
2020/12/18 08:01:15;;;;;;;16.20;12.17;;;;;;;8.54;72.36;101817.09;5032352;28;20424;-73
2020/12/18 08:03:45;;;;;;;14.50;11.57;;;;;;;8.34;71.55;101808.56;5025723;28;20528;-74
2020/12/18 08:06:14;;;;;;;13.80;11.47;;;;;;;8.62;71.08;101807.84;5032576;28;20526;-74
2020/12/18 08:08:39;;;;;;;13.07;11.43;;;;;;;8.47;72.17;101807.31;5036915;28;20861;-74
2020/12/18 08:11:12;;;;;;;14.97;10.70;;;;;;;8.49;71.69;101810.84;5036949;28;20517;-74
2020/12/18 08:13:37;;;;;;;16.53;11.60;;;;;;;8.20;72.76;101805.44;5031234;28;20166;-74
2020/12/18 08:16:18;;;;;;;13.07;11.30;;;;;;;8.41;71.71;101811.41;5028310;28;20737;-74
2020/12/18 08:18:51;;;;;;;17.63;10.90;;;;;;;8.62;71.45;101805.25;5033949;28;20177;-74
2020/12/18 08:21:26;;;;;;;19.00;11.40;;;;;;;8.27;72.36;101815.25;5032648;28;20462;-74
2020/12/18 08:24:07;;;;;;;15.20;11.07;;;;;;;8.68;71.06;101813.25;5023208;28;20436;-75
2020/12/18 08:26:37;;;;;;;14.33;10.07;;;;;;;8.40;71.94;101811.38;5024580;28;20449;-73
2020/12/18 08:29:04;;;;;;;12.43;10.20;;;;;;;8.95;70.37;101817.63;5025200;28;20428;-75
2020/12/18 08:31:39;;;;;;;13.07;10.20;;;;;;;8.97;70.34;101812.47;5026708;28;20417;-75
2020/12/18 08:34:11;;;;;;;11.30;9.90;;;;;;;9.16;69.40;101808.75;5025501;28;20815;-74
2020/12/18 08:36:42;;;;;;;13.83;8.70;;;;;;;9.99;66.43;101816.56;5026071;28;20409;-74
2020/12/18 08:39:10;;;;;;;12.63;9.20;;;;;;;10.76;64.12;101810.88;5026014;28;20391;-77
2020/12/18 08:41:52;;;;;;;12.30;7.90;;;;;;;12.49;58.36;101802.56;5024542;28;20779;-72
2020/12/18 08:44:19;;;;;;;7.03;6.30;;;;;;;12.14;56.75;101803.66;5018977;28;20576;-74
2020/12/18 08:46:45;;;;;;;9.53;7.73;;;;;;;12.23;57.33;101814.28;5029251;28;20474;-76
2020/12/18 08:49:16;;;;;;;9.80;7.70;;;;;;;12.39;57.64;101820.69;5027868;28;20409;-75
2020/12/18 08:51:42;;;;;;;36.43;10.00;;;;;;;12.25;56.72;101812.56;5021348;28;20212;-72
2020/12/18 08:54:27;;;;;;;13.70;8.00;;;;;;;12.51;56.73;101808.72;5035217;28;20427;-74
2020/12/18 08:57:11;;;;;;;9.57;8.07;;;;;;;13.13;53.69;101806.31;5035563;28;20178;-73
2020/12/18 08:59:37;;;;;;;10.20;7.80;;;;;;;13.00;54.91;101809.56;5024135;28;20865;-74
2020/12/18 09:02:02;;;;;;;13.07;8.20;;;;;;;13.36;53.46;101811.06;5020766;28;20397;-74
2020/12/18 09:04:27;;;;;;;8.70;7.80;;;;;;;13.30;52.90;101814.44;5024578;28;20209;-73
2020/12/18 09:06:53;;;;;;;10.10;7.43;;;;;;;13.93;50.39;101816.22;5026896;28;20178;-73
2020/12/18 09:09:18;;;;;;;10.50;7.40;;;;;;;13.65;52.13;101815.84;5025816;28;20225;-73
2020/12/18 09:11:46;;;;;;;12.03;7.23;;;;;;;14.26;49.28;101815.78;5025774;28;20206;-72
2020/12/18 09:14:30;;;;;;;14.13;6.70;;;;;;;14.03;49.95;101820.75;5026759;28;20254;-74
2020/12/18 09:16:57;;;;;;;9.33;7.50;;;;;;;14.09;50.50;101822.56;5026873;28;20456;-73
2020/12/18 09:19:23;;;;;;;8.93;6.30;;;;;;;14.33;50.02;101821.97;5021732;28;20959;-74
2020/12/18 09:21:48;;;;;;;7.60;6.70;;;;;;;13.76;51.11;101819.50;5035094;28;20425;-72
2020/12/18 09:24:19;;;;;;;8.90;6.80;;;;;;;15.01;47.31;101819.19;5026709;28;20473;-73
2020/12/18 09:26:44;;;;;;;7.80;5.90;;;;;;;14.64;47.82;101819.72;5026376;28;20205;-73
2020/12/18 09:29:16;;;;;;;8.20;6.17;;;;;;;14.40;49.24;101813.28;5026731;28;20416;-72
2020/12/18 09:31:42;;;;;;;7.30;6.07;;;;;;;15.65;46.12;101816.13;5029544;28;20415;-72
2020/12/18 09:34:16;;;;;;;6.70;5.70;;;;;;;14.70;47.92;101811.88;5028303;28;20484;-71
2020/12/18 09:36:42;;;;;;;7.67;6.47;;;;;;;15.25;45.71;101800.09;5028857;28;20177;-71
2020/12/18 09:39:07;;;;;;;7.80;5.83;;;;;;;14.96;47.00;101809.53;5030316;28;20743;-72
2020/12/18 09:41:33;;;;;;;8.00;6.17;;;;;;;15.97;44.17;101797.03;5028471;28;20186;-76
2020/12/18 09:43:58;;;;;;;8.17;5.73;;;;;;;15.21;45.48;101804.44;5028188;28;20240;-77
2020/12/18 09:46:23;;;;;;;7.10;5.00;;;;;;;16.34;43.52;101802.41;5028770;28;20174;-77
2020/12/18 09:48:49;;;;;;;6.43;5.77;;;;;;;15.88;44.19;101800.50;5030353;28;20175;-76
2020/12/18 09:51:16;;;;;;;7.90;5.40;;;;;;;16.12;42.58;101796.22;5027123;28;20179;-77
2020/12/18 09:53:42;;;;;;;5.53;5.00;;;;;;;14.43;46.74;101801.97;5032559;28;20421;-79
2020/12/18 09:56:11;;;;;;;10.10;5.53;;;;;;;14.50;48.20;101801.16;5028035;28;20413;-79
2020/12/18 09:58:37;;;;;;;9.10;5.53;;;;;;;14.64;47.38;101799.59;5030168;28;20424;-79
2020/12/18 10:01:03;;;;;;;10.93;6.20;;;;;;;13.55;50.31;101808.72;5029887;28;20684;-77
2020/12/18 10:03:29;;;;;;;6.90;5.83;;;;;;;14.13;49.35;101809.47;5032443;28;20178;-76
2020/12/18 10:05:54;;;;;;;6.40;5.40;;;;;;;13.04;51.58;101800.91;5029877;28;20486;-75
2020/12/18 10:08:19;;;;;;;6.10;5.00;;;;;;;13.64;51.00;101801.00;5039114;28;20217;-76
2020/12/18 10:10:45;;;;;;;6.00;5.37;;;;;;;13.58;50.46;101803.53;5038808;28;20555;-75
2020/12/18 10:13:11;;;;;;;10.07;6.13;;;;;;;13.85;49.75;101803.00;5038806;28;20181;-70
2020/12/18 10:15:36;;;;;;;9.60;6.00;;;;;;;13.47;51.02;101801.59;5039055;28;20402;-73
2020/12/18 10:18:02;;;;;;;8.67;5.57;;;;;;;13.23;51.21;101799.50;5038924;28;20231;-73
2020/12/18 10:20:27;;;;;;;6.43;5.30;;;;;;;14.59;47.62;101793.38;5037811;28;20182;-74
2020/12/18 10:22:52;;;;;;;7.33;4.90;;;;;;;14.60;46.83;101796.88;5038989;28;20174;-74
2020/12/18 10:25:18;;;;;;;6.97;5.23;;;;;;;15.04;46.09;101800.81;5033853;28;20480;-73
2020/12/18 10:27:43;;;;;;;6.50;5.40;;;;;;;14.98;46.57;101792.00;5038632;28;20225;-70
2020/12/18 10:30:09;;;;;;;6.60;5.53;;;;;;;15.27;45.48;101793.97;5038787;28;20166;-71
2020/12/18 10:32:34;;;;;;;8.20;4.87;;;;;;;14.05;48.67;101803.28;5035372;28;20170;-71
2020/12/18 10:35:00;;;;;;;8.77;5.30;;;;;;;14.53;47.26;101797.69;5018838;28;20262;-71
2020/12/18 10:37:26;;;;;;;7.27;5.20;;;;;;;15.34;45.56;101800.16;5018895;28;20353;-71
2020/12/18 10:39:51;;;;;;;8.13;5.53;;;;;;;15.51;45.69;101794.16;5019802;28;20217;-71
2020/12/18 10:42:17;;;;;;;10.00;5.57;;;;;;;14.79;47.04;101790.97;5020082;28;20175;-71
2020/12/18 10:44:43;;;;;;;6.63;5.33;;;;;;;13.92;49.54;101796.09;5018118;28;20229;-71
2020/12/18 10:47:08;;;;;;;6.97;5.73;;;;;;;14.92;47.15;101796.34;5017726;28;20174;-71
2020/12/18 10:49:33;;;;;;;7.40;5.40;;;;;;;15.72;44.83;101789.00;5017616;28;20265;-70
2020/12/18 10:51:59;;;;;;;5.87;5.27;;;;;;;15.77;44.03;101778.50;5017986;28;20545;-71
2020/12/18 10:54:24;;;;;;;6.63;5.03;;;;;;;15.82;44.21;101782.94;5026250;28;20192;-70
2020/12/18 10:56:51;;;;;;;7.90;5.00;;;;;;;15.56;45.02;101781.91;5029159;28;20189;-70
2020/12/18 10:59:16;;;;;;;6.50;4.97;;;;;;;14.96;46.35;101785.88;5037196;28;20186;-71
2020/12/18 11:01:42;;;;;;;7.57;5.10;;;;;;;15.43;45.83;101781.81;5036606;28;20844;-71
2020/12/18 11:04:07;;;;;;;5.37;4.83;;;;;;;14.15;49.44;101786.81;5037029;28;20539;-71
2020/12/18 11:06:38;;;;;;;9.67;5.83;;;;;;;14.55;48.04;101780.22;5028781;28;20182;-69
2020/12/18 11:09:03;;;;;;;5.37;4.50;;;;;;;15.56;45.19;101780.16;5016262;28;20173;-70
2020/12/18 11:11:29;;;;;;;10.30;5.47;;;;;;;15.31;46.08;101777.38;5017144;28;20754;-70
2020/12/18 11:13:56;;;;;;;8.03;5.53;;;;;;;15.60;45.38;101781.94;5017571;28;20167;-71
2020/12/18 11:16:21;;;;;;;10.80;5.57;;;;;;;15.97;44.08;101765.47;5032088;28;20671;-70
2020/12/18 11:18:48;;;;;;;10.40;4.47;;;;;;;14.64;47.54;101780.34;5036826;28;20417;-71
2020/12/18 11:21:13;;;;;;;5.33;4.33;;;;;;;14.41;47.45;101780.97;5036657;28;20201;-71